sensor_id;sensor_type;location;lat;lon;timestamp;P1;durP1;ratioP1;P2;durP2;ratioP2
72406;SDS011;60396;47.550;18.828;2022-09-01T00:00:00;7.53;;;3.40;;
72406;SDS011;60396;47.550;18.828;2022-09-01T00:02:33;10.35;;;3.60;;
72406;SDS011;60396;47.550;18.828;2022-09-01T00:05:01;7.90;;;2.73;;
72406;SDS011;60396;47.550;18.828;2022-09-01T00:07:30;9.77;;;3.60;;
72406;SDS011;60396;47.550;18.828;2022-09-01T00:09:58;9.18;;;3.37;;
72406;SDS011;60396;47.550;18.828;2022-09-01T00:12:27;8.88;;;3.80;;
72406;SDS011;60396;47.550;18.828;2022-09-01T00:14:56;7.78;;;3.80;;
72406;SDS011;60396;47.550;18.828;2022-09-01T00:17:24;9.17;;;3.43;;
72406;SDS011;60396;47.550;18.828;2022-09-01T00:19:52;8.52;;;3.83;;
72406;SDS011;60396;47.550;18.828;2022-09-01T00:22:20;10.43;;;3.80;;
72406;SDS011;60396;47.550;18.828;2022-09-01T00:24:47;8.40;;;3.58;;
72406;SDS011;60396;47.550;18.828;2022-09-01T00:27:15;8.23;;;3.80;;
72406;SDS011;60396;47.550;18.828;2022-09-01T00:29:43;7.93;;;3.10;;
72406;SDS011;60396;47.550;18.828;2022-09-01T00:32:11;8.25;;;4.05;;
72406;SDS011;60396;47.550;18.828;2022-09-01T00:34:39;16.45;;;4.30;;
72406;SDS011;60396;47.550;18.828;2022-09-01T00:37:07;9.48;;;3.90;;
72406;SDS011;60396;47.550;18.828;2022-09-01T00:39:35;7.43;;;3.58;;
72406;SDS011;60396;47.550;18.828;2022-09-01T00:42:03;12.23;;;3.70;;
72406;SDS011;60396;47.550;18.828;2022-09-01T00:44:31;9.45;;;3.30;;
72406;SDS011;60396;47.550;18.828;2022-09-01T00:46:59;9.52;;;4.47;;
72406;SDS011;60396;47.550;18.828;2022-09-01T00:49:31;10.77;;;3.37;;
72406;SDS011;60396;47.550;18.828;2022-09-01T00:52:10;11.15;;;3.25;;
72406;SDS011;60396;47.550;18.828;2022-09-01T00:54:44;9.07;;;3.27;;
72406;SDS011;60396;47.550;18.828;2022-09-01T00:57:14;6.30;;;2.75;;
72406;SDS011;60396;47.550;18.828;2022-09-01T00:59:45;9.20;;;3.37;;
72406;SDS011;60396;47.550;18.828;2022-09-01T01:02:14;11.85;;;2.60;;
72406;SDS011;60396;47.550;18.828;2022-09-01T01:04:43;8.52;;;2.75;;
72406;SDS011;60396;47.550;18.828;2022-09-01T01:07:13;7.37;;;2.40;;
72406;SDS011;60396;47.550;18.828;2022-09-01T01:09:42;7.28;;;1.87;;
72406;SDS011;60396;47.550;18.828;2022-09-01T01:12:11;6.70;;;2.17;;
72406;SDS011;60396;47.550;18.828;2022-09-01T01:14:40;6.43;;;2.12;;
72406;SDS011;60396;47.550;18.828;2022-09-01T01:17:12;5.85;;;2.12;;
72406;SDS011;60396;47.550;18.828;2022-09-01T01:19:53;6.80;;;2.27;;
72406;SDS011;60396;47.550;18.828;2022-09-01T01:22:55;7.60;;;2.40;;
72406;SDS011;60396;47.550;18.828;2022-09-01T01:25:41;8.13;;;1.92;;
72406;SDS011;60396;47.550;18.828;2022-09-01T01:28:16;8.40;;;1.80;;
72406;SDS011;60396;47.550;18.828;2022-09-01T01:30:50;5.72;;;1.87;;
72406;SDS011;60396;47.550;18.828;2022-09-01T01:33:24;6.87;;;1.90;;
72406;SDS011;60396;47.550;18.828;2022-09-01T01:35:54;6.55;;;2.15;;
72406;SDS011;60396;47.550;18.828;2022-09-01T01:38:24;5.18;;;2.10;;
72406;SDS011;60396;47.550;18.828;2022-09-01T01:40:53;7.15;;;1.85;;
72406;SDS011;60396;47.550;18.828;2022-09-01T01:43:23;6.18;;;2.05;;
72406;SDS011;60396;47.550;18.828;2022-09-01T01:45:54;4.67;;;1.60;;
72406;SDS011;60396;47.550;18.828;2022-09-01T01:48:25;5.20;;;1.73;;
72406;SDS011;60396;47.550;18.828;2022-09-01T01:50:57;5.43;;;1.40;;
72406;SDS011;60396;47.550;18.828;2022-09-01T01:53:26;5.95;;;1.40;;
72406;SDS011;60396;47.550;18.828;2022-09-01T01:55:55;7.18;;;1.92;;
72406;SDS011;60396;47.550;18.828;2022-09-01T01:58:26;5.77;;;1.60;;
72406;SDS011;60396;47.550;18.828;2022-09-01T02:00:55;7.28;;;1.65;;
72406;SDS011;60396;47.550;18.828;2022-09-01T02:03:25;7.07;;;1.73;;
72406;SDS011;60396;47.550;18.828;2022-09-01T02:05:55;5.93;;;1.50;;
72406;SDS011;60396;47.550;18.828;2022-09-01T02:08:23;10.75;;;1.70;;
72406;SDS011;60396;47.550;18.828;2022-09-01T02:10:53;7.70;;;1.53;;
72406;SDS011;60396;47.550;18.828;2022-09-01T02:13:22;5.50;;;1.58;;
72406;SDS011;60396;47.550;18.828;2022-09-01T02:16:03;10.38;;;1.50;;
72406;SDS011;60396;47.550;18.828;2022-09-01T02:18:35;6.95;;;1.80;;
72406;SDS011;60396;47.550;18.828;2022-09-01T02:21:05;5.20;;;1.52;;
72406;SDS011;60396;47.550;18.828;2022-09-01T02:23:41;5.63;;;1.40;;
72406;SDS011;60396;47.550;18.828;2022-09-01T02:26:09;6.18;;;1.73;;
72406;SDS011;60396;47.550;18.828;2022-09-01T02:28:44;5.53;;;1.77;;
72406;SDS011;60396;47.550;18.828;2022-09-01T02:31:26;6.10;;;1.42;;
72406;SDS011;60396;47.550;18.828;2022-09-01T02:33:54;13.32;;;3.47;;
72406;SDS011;60396;47.550;18.828;2022-09-01T02:36:22;8.80;;;1.47;;
72406;SDS011;60396;47.550;18.828;2022-09-01T02:38:52;4.80;;;1.45;;
72406;SDS011;60396;47.550;18.828;2022-09-01T02:41:23;4.65;;;1.48;;
72406;SDS011;60396;47.550;18.828;2022-09-01T02:43:56;4.82;;;1.20;;
72406;SDS011;60396;47.550;18.828;2022-09-01T02:46:27;4.22;;;1.35;;
72406;SDS011;60396;47.550;18.828;2022-09-01T02:48:55;4.17;;;1.10;;
72406;SDS011;60396;47.550;18.828;2022-09-01T02:51:24;6.25;;;1.55;;
72406;SDS011;60396;47.550;18.828;2022-09-01T02:53:52;4.40;;;1.30;;
72406;SDS011;60396;47.550;18.828;2022-09-01T02:56:20;3.62;;;1.10;;
72406;SDS011;60396;47.550;18.828;2022-09-01T02:58:52;5.20;;;1.35;;
72406;SDS011;60396;47.550;18.828;2022-09-01T03:01:21;5.20;;;1.40;;
72406;SDS011;60396;47.550;18.828;2022-09-01T03:03:54;6.40;;;1.17;;
72406;SDS011;60396;47.550;18.828;2022-09-01T03:06:23;4.18;;;1.00;;
72406;SDS011;60396;47.550;18.828;2022-09-01T03:08:53;4.78;;;1.20;;
72406;SDS011;60396;47.550;18.828;2022-09-01T03:11:22;7.53;;;1.27;;
72406;SDS011;60396;47.550;18.828;2022-09-01T03:13:50;5.63;;;1.63;;
72406;SDS011;60396;47.550;18.828;2022-09-01T03:16:19;4.03;;;1.20;;
72406;SDS011;60396;47.550;18.828;2022-09-01T03:18:49;5.22;;;1.20;;
72406;SDS011;60396;47.550;18.828;2022-09-01T03:21:18;4.35;;;1.27;;
72406;SDS011;60396;47.550;18.828;2022-09-01T03:23:46;5.50;;;1.55;;
72406;SDS011;60396;47.550;18.828;2022-09-01T03:26:15;6.20;;;1.00;;
72406;SDS011;60396;47.550;18.828;2022-09-01T03:28:45;6.37;;;1.20;;
72406;SDS011;60396;47.550;18.828;2022-09-01T03:31:14;4.62;;;1.02;;
72406;SDS011;60396;47.550;18.828;2022-09-01T03:33:42;5.75;;;1.30;;
72406;SDS011;60396;47.550;18.828;2022-09-01T03:36:10;5.43;;;1.42;;
72406;SDS011;60396;47.550;18.828;2022-09-01T03:38:46;2.77;;;0.70;;
72406;SDS011;60396;47.550;18.828;2022-09-01T03:41:16;5.03;;;1.30;;
72406;SDS011;60396;47.550;18.828;2022-09-01T03:43:45;7.25;;;1.30;;
72406;SDS011;60396;47.550;18.828;2022-09-01T03:46:15;6.45;;;1.35;;
72406;SDS011;60396;47.550;18.828;2022-09-01T03:48:49;7.35;;;1.50;;
72406;SDS011;60396;47.550;18.828;2022-09-01T03:51:18;6.20;;;1.10;;
72406;SDS011;60396;47.550;18.828;2022-09-01T03:53:50;6.03;;;1.20;;
72406;SDS011;60396;47.550;18.828;2022-09-01T03:56:22;8.80;;;1.45;;
72406;SDS011;60396;47.550;18.828;2022-09-01T03:58:54;6.75;;;1.33;;
72406;SDS011;60396;47.550;18.828;2022-09-01T04:01:23;5.12;;;1.12;;
72406;SDS011;60396;47.550;18.828;2022-09-01T04:03:53;3.90;;;1.10;;
72406;SDS011;60396;47.550;18.828;2022-09-01T04:06:22;5.72;;;1.33;;
72406;SDS011;60396;47.550;18.828;2022-09-01T04:08:51;5.57;;;1.17;;
72406;SDS011;60396;47.550;18.828;2022-09-01T04:11:24;4.30;;;0.90;;
72406;SDS011;60396;47.550;18.828;2022-09-01T04:13:52;4.57;;;1.20;;
72406;SDS011;60396;47.550;18.828;2022-09-01T04:16:21;4.93;;;1.20;;
72406;SDS011;60396;47.550;18.828;2022-09-01T04:19:09;4.97;;;1.00;;
72406;SDS011;60396;47.550;18.828;2022-09-01T04:21:47;4.30;;;1.23;;
72406;SDS011;60396;47.550;18.828;2022-09-01T04:24:18;6.35;;;1.00;;
72406;SDS011;60396;47.550;18.828;2022-09-01T04:26:47;6.12;;;1.20;;
72406;SDS011;60396;47.550;18.828;2022-09-01T04:29:16;5.20;;;1.00;;
72406;SDS011;60396;47.550;18.828;2022-09-01T04:31:45;4.65;;;1.02;;
72406;SDS011;60396;47.550;18.828;2022-09-01T04:34:22;5.35;;;1.25;;
72406;SDS011;60396;47.550;18.828;2022-09-01T04:36:50;6.55;;;1.20;;
72406;SDS011;60396;47.550;18.828;2022-09-01T04:39:21;7.05;;;1.30;;
72406;SDS011;60396;47.550;18.828;2022-09-01T04:41:50;4.40;;;1.00;;
72406;SDS011;60396;47.550;18.828;2022-09-01T04:44:18;6.43;;;0.95;;
72406;SDS011;60396;47.550;18.828;2022-09-01T04:46:46;4.62;;;1.10;;
72406;SDS011;60396;47.550;18.828;2022-09-01T04:49:17;5.85;;;1.30;;
72406;SDS011;60396;47.550;18.828;2022-09-01T04:51:49;6.60;;;1.30;;
72406;SDS011;60396;47.550;18.828;2022-09-01T04:54:21;6.80;;;1.10;;
72406;SDS011;60396;47.550;18.828;2022-09-01T04:56:50;5.47;;;1.30;;
72406;SDS011;60396;47.550;18.828;2022-09-01T04:59:19;9.05;;;1.48;;
72406;SDS011;60396;47.550;18.828;2022-09-01T05:01:51;7.72;;;1.40;;
72406;SDS011;60396;47.550;18.828;2022-09-01T05:04:22;6.62;;;1.40;;
72406;SDS011;60396;47.550;18.828;2022-09-01T05:06:54;5.17;;;1.23;;
72406;SDS011;60396;47.550;18.828;2022-09-01T05:09:30;5.62;;;1.20;;
72406;SDS011;60396;47.550;18.828;2022-09-01T05:12:02;5.50;;;1.70;;
72406;SDS011;60396;47.550;18.828;2022-09-01T05:14:44;5.22;;;1.37;;
72406;SDS011;60396;47.550;18.828;2022-09-01T05:17:15;6.85;;;1.50;;
72406;SDS011;60396;47.550;18.828;2022-09-01T05:19:47;5.10;;;1.57;;
72406;SDS011;60396;47.550;18.828;2022-09-01T05:22:17;5.78;;;1.40;;
72406;SDS011;60396;47.550;18.828;2022-09-01T05:24:50;5.60;;;1.20;;
72406;SDS011;60396;47.550;18.828;2022-09-01T05:27:21;5.28;;;1.30;;
72406;SDS011;60396;47.550;18.828;2022-09-01T05:29:49;4.22;;;1.30;;
72406;SDS011;60396;47.550;18.828;2022-09-01T05:32:17;5.37;;;1.50;;
72406;SDS011;60396;47.550;18.828;2022-09-01T05:34:45;4.32;;;1.20;;
72406;SDS011;60396;47.550;18.828;2022-09-01T05:37:13;4.95;;;1.20;;
72406;SDS011;60396;47.550;18.828;2022-09-01T05:39:42;10.07;;;1.70;;
72406;SDS011;60396;47.550;18.828;2022-09-01T05:42:10;6.78;;;1.23;;
72406;SDS011;60396;47.550;18.828;2022-09-01T05:44:38;4.80;;;1.10;;
72406;SDS011;60396;47.550;18.828;2022-09-01T05:47:11;4.80;;;1.12;;
72406;SDS011;60396;47.550;18.828;2022-09-01T05:49:47;4.07;;;1.25;;
72406;SDS011;60396;47.550;18.828;2022-09-01T05:52:16;4.07;;;1.12;;
72406;SDS011;60396;47.550;18.828;2022-09-01T05:54:47;5.90;;;1.00;;
72406;SDS011;60396;47.550;18.828;2022-09-01T05:57:16;6.37;;;1.10;;
72406;SDS011;60396;47.550;18.828;2022-09-01T06:00:04;5.90;;;1.35;;
72406;SDS011;60396;47.550;18.828;2022-09-01T06:02:39;4.57;;;1.00;;
72406;SDS011;60396;47.550;18.828;2022-09-01T06:05:09;5.87;;;1.12;;
72406;SDS011;60396;47.550;18.828;2022-09-01T06:07:37;6.50;;;1.50;;
72406;SDS011;60396;47.550;18.828;2022-09-01T06:10:09;4.57;;;1.00;;
72406;SDS011;60396;47.550;18.828;2022-09-01T06:12:37;5.32;;;1.50;;
72406;SDS011;60396;47.550;18.828;2022-09-01T06:15:07;5.05;;;1.30;;
72406;SDS011;60396;47.550;18.828;2022-09-01T06:17:43;4.57;;;1.35;;
72406;SDS011;60396;47.550;18.828;2022-09-01T06:20:12;5.32;;;1.50;;
72406;SDS011;60396;47.550;18.828;2022-09-01T06:22:40;6.13;;;1.30;;
72406;SDS011;60396;47.550;18.828;2022-09-01T06:25:08;5.78;;;1.30;;
72406;SDS011;60396;47.550;18.828;2022-09-01T06:27:36;5.47;;;1.80;;
72406;SDS011;60396;47.550;18.828;2022-09-01T06:30:09;5.72;;;1.67;;
72406;SDS011;60396;47.550;18.828;2022-09-01T06:32:52;4.22;;;1.30;;
72406;SDS011;60396;47.550;18.828;2022-09-01T06:35:20;6.07;;;1.53;;
72406;SDS011;60396;47.550;18.828;2022-09-01T06:37:51;6.15;;;1.35;;
72406;SDS011;60396;47.550;18.828;2022-09-01T06:40:19;8.18;;;1.50;;
72406;SDS011;60396;47.550;18.828;2022-09-01T06:42:48;5.12;;;1.08;;
72406;SDS011;60396;47.550;18.828;2022-09-01T06:45:19;5.35;;;1.60;;
72406;SDS011;60396;47.550;18.828;2022-09-01T06:47:48;4.07;;;1.10;;
72406;SDS011;60396;47.550;18.828;2022-09-01T06:50:23;3.20;;;0.98;;
72406;SDS011;60396;47.550;18.828;2022-09-01T06:53:11;4.82;;;1.27;;
72406;SDS011;60396;47.550;18.828;2022-09-01T06:55:59;6.28;;;1.30;;
72406;SDS011;60396;47.550;18.828;2022-09-01T06:58:27;3.30;;;0.93;;
72406;SDS011;60396;47.550;18.828;2022-09-01T07:00:57;5.50;;;0.90;;
72406;SDS011;60396;47.550;18.828;2022-09-01T07:03:24;5.07;;;1.20;;
72406;SDS011;60396;47.550;18.828;2022-09-01T07:05:54;5.07;;;1.40;;
72406;SDS011;60396;47.550;18.828;2022-09-01T07:08:31;3.25;;;0.95;;
72406;SDS011;60396;47.550;18.828;2022-09-01T07:11:28;5.18;;;1.30;;
72406;SDS011;60396;47.550;18.828;2022-09-01T07:14:19;4.13;;;1.17;;
72406;SDS011;60396;47.550;18.828;2022-09-01T07:16:47;6.72;;;1.40;;
72406;SDS011;60396;47.550;18.828;2022-09-01T07:19:20;5.37;;;1.50;;
72406;SDS011;60396;47.550;18.828;2022-09-01T07:21:49;4.72;;;1.35;;
72406;SDS011;60396;47.550;18.828;2022-09-01T07:24:37;5.15;;;1.25;;
72406;SDS011;60396;47.550;18.828;2022-09-01T07:27:08;3.97;;;1.20;;
72406;SDS011;60396;47.550;18.828;2022-09-01T07:29:40;4.22;;;1.23;;
72406;SDS011;60396;47.550;18.828;2022-09-01T07:32:08;4.43;;;1.37;;
72406;SDS011;60396;47.550;18.828;2022-09-01T07:34:57;6.00;;;1.23;;
72406;SDS011;60396;47.550;18.828;2022-09-01T07:37:27;5.12;;;1.60;;
72406;SDS011;60396;47.550;18.828;2022-09-01T07:40:16;6.20;;;1.43;;
72406;SDS011;60396;47.550;18.828;2022-09-01T07:43:18;5.80;;;1.27;;
72406;SDS011;60396;47.550;18.828;2022-09-01T07:45:53;4.47;;;1.25;;
72406;SDS011;60396;47.550;18.828;2022-09-01T07:48:26;5.47;;;1.33;;
72406;SDS011;60396;47.550;18.828;2022-09-01T07:51:16;4.10;;;1.20;;
72406;SDS011;60396;47.550;18.828;2022-09-01T07:54:04;5.17;;;1.23;;
72406;SDS011;60396;47.550;18.828;2022-09-01T07:56:32;6.55;;;1.20;;
72406;SDS011;60396;47.550;18.828;2022-09-01T07:59:06;5.05;;;1.40;;
72406;SDS011;60396;47.550;18.828;2022-09-01T08:01:43;6.53;;;1.60;;
72406;SDS011;60396;47.550;18.828;2022-09-01T08:04:11;4.70;;;1.30;;
72406;SDS011;60396;47.550;18.828;2022-09-01T08:06:40;5.67;;;1.30;;
72406;SDS011;60396;47.550;18.828;2022-09-01T08:09:08;4.30;;;1.30;;
72406;SDS011;60396;47.550;18.828;2022-09-01T08:11:51;5.53;;;1.90;;
72406;SDS011;60396;47.550;18.828;2022-09-01T08:14:36;5.40;;;1.55;;
72406;SDS011;60396;47.550;18.828;2022-09-01T08:17:04;7.40;;;1.55;;
72406;SDS011;60396;47.550;18.828;2022-09-01T08:19:52;5.20;;;1.60;;
72406;SDS011;60396;47.550;18.828;2022-09-01T08:22:20;8.77;;;1.70;;
72406;SDS011;60396;47.550;18.828;2022-09-01T08:24:52;7.25;;;2.42;;
72406;SDS011;60396;47.550;18.828;2022-09-01T08:27:21;6.35;;;1.33;;
72406;SDS011;60396;47.550;18.828;2022-09-01T08:29:49;8.18;;;1.48;;
72406;SDS011;60396;47.550;18.828;2022-09-01T08:32:16;7.43;;;1.60;;
72406;SDS011;60396;47.550;18.828;2022-09-01T08:34:44;7.57;;;1.40;;
72406;SDS011;60396;47.550;18.828;2022-09-01T08:37:12;4.80;;;1.70;;
72406;SDS011;60396;47.550;18.828;2022-09-01T08:39:40;6.22;;;1.60;;
72406;SDS011;60396;47.550;18.828;2022-09-01T08:47:39;6.45;;;1.67;;
72406;SDS011;60396;47.550;18.828;2022-09-01T08:50:27;5.72;;;2.12;;
72406;SDS011;60396;47.550;18.828;2022-09-01T08:53:08;8.07;;;1.62;;
72406;SDS011;60396;47.550;18.828;2022-09-01T08:55:59;5.87;;;2.00;;
72406;SDS011;60396;47.550;18.828;2022-09-01T08:58:28;7.80;;;1.80;;
72406;SDS011;60396;47.550;18.828;2022-09-01T09:01:03;8.05;;;1.70;;
72406;SDS011;60396;47.550;18.828;2022-09-01T09:06:36;7.10;;;1.52;;
72406;SDS011;60396;47.550;18.828;2022-09-01T09:09:06;5.97;;;1.55;;
72406;SDS011;60396;47.550;18.828;2022-09-01T09:17:17;6.85;;;1.85;;
72406;SDS011;60396;47.550;18.828;2022-09-01T09:19:47;8.93;;;1.52;;
72406;SDS011;60396;47.550;18.828;2022-09-01T09:22:16;6.53;;;1.42;;
72406;SDS011;60396;47.550;18.828;2022-09-01T09:27:34;5.07;;;2.15;;
72406;SDS011;60396;47.550;18.828;2022-09-01T09:30:14;5.03;;;1.40;;
72406;SDS011;60396;47.550;18.828;2022-09-01T09:35:43;4.55;;;1.45;;
72406;SDS011;60396;47.550;18.828;2022-09-01T09:41:00;5.62;;;1.20;;
72406;SDS011;60396;47.550;18.828;2022-09-01T09:43:48;4.18;;;1.10;;
72406;SDS011;60396;47.550;18.828;2022-09-01T09:46:38;4.18;;;1.02;;
72406;SDS011;60396;47.550;18.828;2022-09-01T09:49:24;4.30;;;1.00;;
72406;SDS011;60396;47.550;18.828;2022-09-01T09:54:37;4.35;;;0.90;;
72406;SDS011;60396;47.550;18.828;2022-09-01T09:59:35;5.25;;;1.27;;
72406;SDS011;60396;47.550;18.828;2022-09-01T10:02:42;4.53;;;1.30;;
72406;SDS011;60396;47.550;18.828;2022-09-01T10:07:48;3.87;;;0.93;;
72406;SDS011;60396;47.550;18.828;2022-09-01T10:12:56;6.18;;;1.10;;
72406;SDS011;60396;47.550;18.828;2022-09-01T10:15:28;3.75;;;0.80;;
72406;SDS011;60396;47.550;18.828;2022-09-01T10:18:01;4.63;;;0.80;;
72406;SDS011;60396;47.550;18.828;2022-09-01T10:20:52;5.40;;;1.25;;
72406;SDS011;60396;47.550;18.828;2022-09-01T10:23:22;5.93;;;1.65;;
72406;SDS011;60396;47.550;18.828;2022-09-01T10:26:08;6.12;;;1.70;;
72406;SDS011;60396;47.550;18.828;2022-09-01T10:28:51;7.90;;;2.45;;
72406;SDS011;60396;47.550;18.828;2022-09-01T10:31:23;9.13;;;2.10;;
72406;SDS011;60396;47.550;18.828;2022-09-01T10:34:00;3.53;;;1.00;;
72406;SDS011;60396;47.550;18.828;2022-09-01T10:36:29;13.98;;;4.82;;
72406;SDS011;60396;47.550;18.828;2022-09-01T10:38:57;3.97;;;0.90;;
72406;SDS011;60396;47.550;18.828;2022-09-01T10:44:12;7.97;;;2.10;;
72406;SDS011;60396;47.550;18.828;2022-09-01T10:46:46;6.68;;;1.75;;
72406;SDS011;60396;47.550;18.828;2022-09-01T10:49:19;6.20;;;1.20;;
72406;SDS011;60396;47.550;18.828;2022-09-01T10:51:55;4.03;;;0.70;;
72406;SDS011;60396;47.550;18.828;2022-09-01T10:59:45;4.87;;;1.30;;
72406;SDS011;60396;47.550;18.828;2022-09-01T11:02:23;4.28;;;0.80;;
72406;SDS011;60396;47.550;18.828;2022-09-01T11:07:32;4.97;;;1.02;;
72406;SDS011;60396;47.550;18.828;2022-09-01T11:10:27;6.27;;;1.50;;
72406;SDS011;60396;47.550;18.828;2022-09-01T11:13:31;3.58;;;0.75;;
72406;SDS011;60396;47.550;18.828;2022-09-01T11:19:37;8.00;;;0.95;;
72406;SDS011;60396;47.550;18.828;2022-09-01T11:30:21;4.18;;;0.77;;
72406;SDS011;60396;47.550;18.828;2022-09-01T11:32:51;5.12;;;0.80;;
72406;SDS011;60396;47.550;18.828;2022-09-01T11:35:25;3.75;;;0.90;;
72406;SDS011;60396;47.550;18.828;2022-09-01T11:37:55;4.57;;;1.10;;
72406;SDS011;60396;47.550;18.828;2022-09-01T11:40:29;2.85;;;0.77;;
72406;SDS011;60396;47.550;18.828;2022-09-01T11:43:00;5.78;;;1.05;;
72406;SDS011;60396;47.550;18.828;2022-09-01T11:45:43;6.25;;;1.70;;
72406;SDS011;60396;47.550;18.828;2022-09-01T11:48:34;2.85;;;0.80;;
72406;SDS011;60396;47.550;18.828;2022-09-01T11:51:02;6.27;;;1.20;;
72406;SDS011;60396;47.550;18.828;2022-09-01T11:53:30;10.63;;;0.85;;
72406;SDS011;60396;47.550;18.828;2022-09-01T11:56:11;6.10;;;1.20;;
72406;SDS011;60396;47.550;18.828;2022-09-01T11:58:39;4.78;;;1.00;;
72406;SDS011;60396;47.550;18.828;2022-09-01T12:03:45;4.67;;;0.77;;
72406;SDS011;60396;47.550;18.828;2022-09-01T12:06:23;4.07;;;1.20;;
72406;SDS011;60396;47.550;18.828;2022-09-01T12:08:54;5.30;;;1.12;;
72406;SDS011;60396;47.550;18.828;2022-09-01T12:11:24;2.83;;;0.75;;
72406;SDS011;60396;47.550;18.828;2022-09-01T12:14:07;2.67;;;0.90;;
72406;SDS011;60396;47.550;18.828;2022-09-01T12:16:38;3.53;;;0.80;;
72406;SDS011;60396;47.550;18.828;2022-09-01T12:19:21;5.10;;;0.90;;
72406;SDS011;60396;47.550;18.828;2022-09-01T12:22:12;3.17;;;0.93;;
72406;SDS011;60396;47.550;18.828;2022-09-01T12:24:46;3.87;;;1.02;;
72406;SDS011;60396;47.550;18.828;2022-09-01T12:27:15;6.00;;;0.80;;
72406;SDS011;60396;47.550;18.828;2022-09-01T12:29:44;4.30;;;0.80;;
72406;SDS011;60396;47.550;18.828;2022-09-01T12:32:12;4.57;;;0.80;;
72406;SDS011;60396;47.550;18.828;2022-09-01T12:34:43;4.72;;;1.12;;
72406;SDS011;60396;47.550;18.828;2022-09-01T12:37:23;4.22;;;0.90;;
72406;SDS011;60396;47.550;18.828;2022-09-01T12:39:53;5.28;;;1.02;;
72406;SDS011;60396;47.550;18.828;2022-09-01T12:42:25;2.37;;;0.60;;
72406;SDS011;60396;47.550;18.828;2022-09-01T12:52:45;3.92;;;0.70;;
72406;SDS011;60396;47.550;18.828;2022-09-01T12:55:15;3.47;;;0.90;;
72406;SDS011;60396;47.550;18.828;2022-09-01T12:58:06;3.80;;;0.70;;
72406;SDS011;60396;47.550;18.828;2022-09-01T13:00:35;4.95;;;0.80;;
72406;SDS011;60396;47.550;18.828;2022-09-01T13:03:20;5.12;;;0.88;;
72406;SDS011;60396;47.550;18.828;2022-09-01T13:05:50;4.70;;;1.12;;
72406;SDS011;60396;47.550;18.828;2022-09-01T13:08:23;5.47;;;0.87;;
72406;SDS011;60396;47.550;18.828;2022-09-01T13:11:05;4.37;;;0.90;;
72406;SDS011;60396;47.550;18.828;2022-09-01T13:13:37;7.03;;;0.93;;
72406;SDS011;60396;47.550;18.828;2022-09-01T13:16:05;4.32;;;0.98;;
72406;SDS011;60396;47.550;18.828;2022-09-01T13:18:41;3.20;;;0.90;;
72406;SDS011;60396;47.550;18.828;2022-09-01T13:21:30;6.53;;;0.80;;
72406;SDS011;60396;47.550;18.828;2022-09-01T13:23:58;3.70;;;0.70;;
72406;SDS011;60396;47.550;18.828;2022-09-01T13:26:25;3.62;;;1.10;;
72406;SDS011;60396;47.550;18.828;2022-09-01T13:28:59;3.90;;;0.90;;
72406;SDS011;60396;47.550;18.828;2022-09-01T13:31:27;7.62;;;1.10;;
72406;SDS011;60396;47.550;18.828;2022-09-01T13:33:57;3.87;;;0.73;;
72406;SDS011;60396;47.550;18.828;2022-09-01T13:36:45;5.20;;;0.80;;
72406;SDS011;60396;47.550;18.828;2022-09-01T13:39:18;4.95;;;1.00;;
72406;SDS011;60396;47.550;18.828;2022-09-01T13:41:47;5.62;;;0.90;;
72406;SDS011;60396;47.550;18.828;2022-09-01T13:44:15;3.35;;;0.93;;
72406;SDS011;60396;47.550;18.828;2022-09-01T13:46:45;3.77;;;0.80;;
72406;SDS011;60396;47.550;18.828;2022-09-01T13:49:33;2.83;;;0.73;;
72406;SDS011;60396;47.550;18.828;2022-09-01T13:52:20;3.62;;;1.05;;
72406;SDS011;60396;47.550;18.828;2022-09-01T13:54:48;3.33;;;0.77;;
72406;SDS011;60396;47.550;18.828;2022-09-01T13:57:16;3.30;;;0.80;;
72406;SDS011;60396;47.550;18.828;2022-09-01T13:59:43;3.67;;;0.60;;
72406;SDS011;60396;47.550;18.828;2022-09-01T14:02:12;3.97;;;0.75;;
72406;SDS011;60396;47.550;18.828;2022-09-01T14:04:39;5.37;;;1.10;;
72406;SDS011;60396;47.550;18.828;2022-09-01T14:07:07;2.97;;;0.62;;
72406;SDS011;60396;47.550;18.828;2022-09-01T14:09:35;3.70;;;0.95;;
72406;SDS011;60396;47.550;18.828;2022-09-01T14:12:02;4.00;;;0.70;;
72406;SDS011;60396;47.550;18.828;2022-09-01T14:14:32;4.57;;;0.98;;
72406;SDS011;60396;47.550;18.828;2022-09-01T14:17:20;3.62;;;1.00;;
72406;SDS011;60396;47.550;18.828;2022-09-01T14:19:48;3.42;;;0.80;;
72406;SDS011;60396;47.550;18.828;2022-09-01T14:22:16;3.37;;;0.90;;
72406;SDS011;60396;47.550;18.828;2022-09-01T14:24:44;5.40;;;1.43;;
72406;SDS011;60396;47.550;18.828;2022-09-01T14:27:12;5.18;;;1.60;;
72406;SDS011;60396;47.550;18.828;2022-09-01T14:29:39;6.12;;;1.50;;
72406;SDS011;60396;47.550;18.828;2022-09-01T14:32:07;3.78;;;1.00;;
72406;SDS011;60396;47.550;18.828;2022-09-01T14:34:34;3.47;;;0.82;;
72406;SDS011;60396;47.550;18.828;2022-09-01T14:37:03;3.47;;;0.93;;
72406;SDS011;60396;47.550;18.828;2022-09-01T14:39:31;3.83;;;0.93;;
72406;SDS011;60396;47.550;18.828;2022-09-01T14:41:59;7.70;;;1.60;;
72406;SDS011;60396;47.550;18.828;2022-09-01T14:44:26;5.50;;;1.60;;
72406;SDS011;60396;47.550;18.828;2022-09-01T14:46:54;4.07;;;1.45;;
72406;SDS011;60396;47.550;18.828;2022-09-01T14:49:21;8.20;;;1.73;;
72406;SDS011;60396;47.550;18.828;2022-09-01T14:51:49;6.20;;;1.80;;
72406;SDS011;60396;47.550;18.828;2022-09-01T14:54:38;6.05;;;1.48;;
72406;SDS011;60396;47.550;18.828;2022-09-01T14:57:06;6.65;;;1.58;;
72406;SDS011;60396;47.550;18.828;2022-09-01T14:59:54;4.82;;;1.52;;
72406;SDS011;60396;47.550;18.828;2022-09-01T15:02:23;5.37;;;1.50;;
72406;SDS011;60396;47.550;18.828;2022-09-01T15:04:51;4.45;;;1.30;;
72406;SDS011;60396;47.550;18.828;2022-09-01T15:07:19;6.45;;;1.70;;
72406;SDS011;60396;47.550;18.828;2022-09-01T15:09:47;4.28;;;1.40;;
72406;SDS011;60396;47.550;18.828;2022-09-01T15:12:14;5.45;;;1.90;;
72406;SDS011;60396;47.550;18.828;2022-09-01T15:14:43;4.77;;;1.30;;
72406;SDS011;60396;47.550;18.828;2022-09-01T15:17:10;5.75;;;1.77;;
72406;SDS011;60396;47.550;18.828;2022-09-01T15:19:38;10.95;;;1.75;;
72406;SDS011;60396;47.550;18.828;2022-09-01T15:22:08;5.65;;;1.40;;
72406;SDS011;60396;47.550;18.828;2022-09-01T15:24:41;6.18;;;1.60;;
72406;SDS011;60396;47.550;18.828;2022-09-01T15:27:09;6.70;;;1.63;;
72406;SDS011;60396;47.550;18.828;2022-09-01T15:29:38;5.53;;;1.40;;
72406;SDS011;60396;47.550;18.828;2022-09-01T15:32:14;4.65;;;1.40;;
72406;SDS011;60396;47.550;18.828;2022-09-01T15:34:54;5.00;;;1.42;;
72406;SDS011;60396;47.550;18.828;2022-09-01T15:37:22;5.00;;;1.42;;
72406;SDS011;60396;47.550;18.828;2022-09-01T15:39:51;5.17;;;1.87;;
72406;SDS011;60396;47.550;18.828;2022-09-01T15:42:19;4.97;;;1.65;;
72406;SDS011;60396;47.550;18.828;2022-09-01T15:44:48;5.90;;;1.60;;
72406;SDS011;60396;47.550;18.828;2022-09-01T15:47:16;5.10;;;1.62;;
72406;SDS011;60396;47.550;18.828;2022-09-01T15:49:46;4.37;;;1.50;;
72406;SDS011;60396;47.550;18.828;2022-09-01T15:52:15;6.77;;;1.60;;
72406;SDS011;60396;47.550;18.828;2022-09-01T15:54:42;6.30;;;1.87;;
72406;SDS011;60396;47.550;18.828;2022-09-01T15:57:10;4.82;;;1.55;;
72406;SDS011;60396;47.550;18.828;2022-09-01T15:59:38;5.53;;;1.83;;
72406;SDS011;60396;47.550;18.828;2022-09-01T16:02:08;4.45;;;1.27;;
72406;SDS011;60396;47.550;18.828;2022-09-01T16:04:36;5.37;;;1.40;;
72406;SDS011;60396;47.550;18.828;2022-09-01T16:07:05;4.68;;;1.33;;
72406;SDS011;60396;47.550;18.828;2022-09-01T16:09:33;6.32;;;1.67;;